• Join FlightAware (Why Join?)
  • Login
  • US Flag 
05:36AM EDT


 

Airport Tracker/Info


-or-


 

Live Flight TrackerFlight Track Log ✈ DAL1716 ✈ 11-Jul-2013 ✈ KDEN - KATL

Flight Track Log - Related Links

Times and Time Zones

All times are in EDT time to prevent confusion due to time zone crossing. See the DAL1716 flight status page for this flight to view local times or setup timezone preferences in your user account.

Time Position Orientation Groundspeed Altitude Reporting Facility
EDT Latitude Longitude Course Direction KTS MPH feet Rate Location/Type
10:11AM 39.7667 -104.6000 107° East 244 281 7,700  Level Denver TRACON
10:12AM 39.7333 -104.5167 117° Southeast 284 327 9,800 2,160 Climbing Denver TRACON
10:13AM 39.6709 -104.0711 105° East  Level FlightAware Approximate
10:13AM 39.7000 -104.4167 113° Southeast 303 349 11,900  Level Denver TRACON
10:14AM 39.6243 -103.9228 113° Southeast  Level FlightAware Approximate
10:14AM 39.7139 -104.3167 80° East 315 362 14,100  Level Denver Center
10:15AM 39.5788 -103.7742 123° Southeast  Level FlightAware Approximate
10:15AM 39.7103 -104.1997 92° East 337 388 16,300  Level Denver Center
10:16AM 39.5377 -103.6242 107° East  Level FlightAware Approximate
10:16AM 39.6728 -104.0761 111° Southeast 345 397 18,000  Level Denver Center
10:17AM 39.6353 -103.9428 110° East 398 458 19,000 1,200 Climbing Denver Center
10:18AM 39.5933 -103.8025 111° Southeast 419 482 20,600 1,440 Climbing Denver Center
10:19AM 39.5553 -103.6597 109° East 420 483 22,000 1,380 Climbing Denver Center
10:20AM 39.5158 -103.5047 108° East 448 516 23,500 1,500 Climbing Denver Center
10:21AM 39.4653 -103.3142 109° East 466 536 25,100 1,440 Climbing Denver Center
10:22AM 39.4228 -103.1514 109° East 476 548 26,500 1,140 Climbing Denver Center
10:23AM 39.3772 -102.9842 109° East 490 564 27,500 960 Climbing Denver Center
10:24AM 39.3322 -102.8147 109° East 498 573 28,500 1,260 Climbing Denver Center
10:25AM 39.2803 -102.6253 109° East 503 579 30,200 1,320 Climbing Denver Center
10:26AM 39.2364 -102.4636 109° East 500 575 31,300 1,140 Climbing Denver Center
10:27AM 39.1842 -102.2742 110° East 501 577 32,800 1,200 Climbing Denver Center
10:28AM 39.1322 -102.0864 110° East 497 572 34,100 1,440 Climbing Denver Center
10:29AM 39.0797 -101.9011 110° East 494 568 35,800 1,200 Climbing Denver Center
10:30AM 39.0358 -101.7475 110° East 482 555 36,600 540 Climbing Denver Center
10:31AM 38.9836 -101.5653 110° East 485 558 37,000 180 Climbing Denver Center
10:33AM 38.9378 -101.4100 111° Southeast 486 559 37,000  Level Denver Center
10:34AM 38.8847 -101.2258 110° East 490 564 37,000  Level Denver Center
10:35AM 38.8381 -101.0697 111° Southeast 489 563 37,000  Level Denver Center
10:36AM 38.7850 -100.8844 110° East 494 568 37,000  Level Denver Center
10:37AM 38.7378 -100.7275 111° Southeast 494 568 37,000  Level Denver Center
10:38AM 38.6908 -100.5711 111° Southeast 492 566 37,000  Level Denver Center
10:39AM 38.6364 -100.3900 111° Southeast 489 563 37,000  Level Denver Center
10:39AM 38.6042 -100.2828 111° Southeast 490 564 37,000  Level Kansas City Center
10:40AM 38.5578 -100.1286 111° Southeast 486 559 37,000 180 Level Kansas City Center
10:41AM 38.5025 -99.9494 111° Southeast 485 558 37,400 540 Climbing Kansas City Center
10:42AM 38.4550 -99.7964 112° Southeast 484 557 38,200 720 Climbing Kansas City Center
10:43AM 38.4006 -99.6200 111° Southeast 480 552 39,000 360 Climbing Kansas City Center
10:45AM 38.3628 -99.4939 111° Southeast 476 548 39,000  Level Kansas City Center
10:46AM 38.3028 -99.3061 112° Southeast 475 547 39,000  Level Kansas City Center
10:47AM 38.2531 -99.1503 112° Southeast 475 547 39,000  Level Kansas City Center
10:48AM 38.2033 -98.9928 112° Southeast 477 549 39,000  Level Kansas City Center
10:49AM 38.1544 -98.8367 112° Southeast 476 548 39,000  Level Kansas City Center
10:50AM 38.1044 -98.6814 112° Southeast 474 545 39,000  Level Kansas City Center
10:51AM 38.0547 -98.5269 112° Southeast 473 544 39,000  Level Kansas City Center
10:52AM 37.9950 -98.3419 112° Southeast 472 543 39,000  Level Kansas City Center
10:53AM 37.9456 -98.1903 112° Southeast 468 539 39,000  Level Kansas City Center
10:54AM 37.8983 -98.0517 113° Southeast 469 540 39,000  Level Kansas City Center
10:55AM 37.8386 -97.8658 112° Southeast 470 541 39,000  Level Kansas City Center
10:56AM 37.7831 -97.7031 113° Southeast 478 550 39,000  Level Kansas City Center
10:57AM 37.7344 -97.5561 113° Southeast 474 545 39,000  Level Kansas City Center
10:58AM 37.6708 -97.4028 118° Southeast 476 548 39,000  Level Kansas City Center
10:59AM 37.6086 -97.2522 118° Southeast 481 554 39,000  Level Kansas City Center
11:00AM 37.5475 -97.1056 118° Southeast 474 545 39,000  Level Kansas City Center
11:01AM 37.4861 -96.9583 118° Southeast 475 547 39,000  Level Kansas City Center
11:02AM 37.4131 -96.7828 118° Southeast 472 543 39,000  Level Kansas City Center
11:03AM 37.3550 -96.6358 116° Southeast 471 542 39,000  Level Kansas City Center
11:04AM 37.2917 -96.4903 119° Southeast 474 545 39,000  Level Kansas City Center
11:05AM 37.2250 -96.3292 117° Southeast 475 547 39,000  Level Kansas City Center
11:06AM 37.1603 -96.1828 119° Southeast 479 551 39,000  Level Kansas City Center
11:07AM 37.0967 -96.0344 118° Southeast 481 554 39,000  Level Kansas City Center
11:08AM 37.0322 -95.8842 118° Southeast 485 558 39,000  Level Kansas City Center
11:09AM 36.9675 -95.7364 119° Southeast 483 556 39,000  Level Kansas City Center
11:10AM 36.9028 -95.5878 119° Southeast 484 557 39,000  Level Kansas City Center
11:11AM 36.8244 -95.4108 119° Southeast 479 551 39,000  Level Kansas City Center
11:12AM 36.7581 -95.2592 119° Southeast 486 559 39,000  Level Kansas City Center
11:13AM 36.6914 -95.1067 119° Southeast 493 567 39,000  Level Kansas City Center
11:15AM 36.6225 -94.9522 119° Southeast 502 578 39,000  Level Kansas City Center
11:16AM 36.5550 -94.8022 119° Southeast 496 571 39,000  Level Kansas City Center
11:17AM 36.4881 -94.6522 119° Southeast 494 568 39,000  Level Kansas City Center
11:18AM 36.4203 -94.5028 119° Southeast 494 568 39,000  Level Kansas City Center
11:19AM 36.3522 -94.3558 120° Southeast 491 565 39,000  Level Kansas City Center
11:19AM 36.3006 -94.2350 118° Southeast 494 568 39,000  Level Memphis Center
11:20AM 36.2406 -94.0881 117° Southeast 489 563 39,100  Climbing Memphis Center
11:21AM 36.1928 -93.9369 111° Southeast 477 549 39,000 -60 Descending Memphis Center
11:22AM 36.1550 -93.7964 108° East 472 543 39,000  Level Memphis Center
11:23AM 36.1133 -93.6431 109° East 472 543 39,000  Level Memphis Center
11:24AM 36.0672 -93.4897 110° East 472 543 39,000  Level Memphis Center
11:25AM 36.0214 -93.3211 109° East 472 543 39,000  Level Memphis Center
11:26AM 35.9769 -93.1631 109° East 477 549 39,000  Level Memphis Center
11:27AM 35.9325 -93.0053 109° East 482 555 39,000  Level Memphis Center
11:28AM 35.8878 -92.8500 110° East 482 555 39,000  Level Memphis Center
11:29AM 35.8428 -92.6900 109° East 482 555 39,000  Level Memphis Center
11:30AM 35.7956 -92.5350 111° Southeast 482 555 39,000  Level Memphis Center
11:31AM 35.7483 -92.3753 110° East 488 562 39,000  Level Memphis Center
11:32AM 35.7028 -92.2206 110° East 488 562 39,000  Level Memphis Center
11:33AM 35.6569 -92.0639 110° East 488 562 39,000  Level Memphis Center
11:34AM 35.6111 -91.9097 110° East 488 562 39,000  Level Memphis Center
11:35AM 35.5650 -91.7556 110° East 488 562 39,000  Level Memphis Center
11:36AM 35.5186 -91.5992 110° East 488 562 39,000  Level Memphis Center
11:37AM 35.4742 -91.4456 110° East 483 556 39,000  Level Memphis Center
11:38AM 35.4272 -91.2972 111° Southeast 468 539 39,000  Level Memphis Center
11:39AM 35.3803 -91.1439 111° Southeast 477 549 39,000  Level Memphis Center
11:40AM 35.3333 -90.9933 111° Southeast 470 541 39,000  Level Memphis Center
11:41AM 35.2858 -90.8428 111° Southeast 475 547 39,000  Level Memphis Center
11:42AM 35.2406 -90.6928 110° East 480 552 39,000  Level Memphis Center
11:43AM 35.1928 -90.5375 111° Southeast 475 547 39,000  Level Memphis Center
11:44AM 35.1450 -90.3875 111° Southeast 475 547 39,000  Level Memphis Center
11:45AM 35.1033 -90.2556 111° Southeast 475 547 39,000  Level Memphis Center
11:46AM 35.0550 -90.1033 111° Southeast 475 547 39,000  Level Memphis Center
11:47AM 35.0150 -89.9539 108° East 468 539 39,000  Level Memphis Center
11:48AM 34.9936 -89.7917 99° East 471 542 39,000  Level Memphis Center
11:49AM 34.9675 -89.6094 100° East 489 563 39,000  Level Memphis Center
11:50AM 34.9394 -89.4553 102° East 484 557 39,000  Level Memphis Center
11:51AM 34.9153 -89.2986 101° East 473 544 39,000  Level Memphis Center
11:52AM 34.8908 -89.1444 101° East 468 539 39,000  Level Memphis Center
11:53AM 34.8683 -88.9903 100° East 468 539 39,000  Level Memphis Center
11:54AM 34.8458 -88.8489 101° East 468 539 39,000  Level Memphis Center
11:55AM 34.8208 -88.6900 101° East 468 539 39,000 -360 Level Memphis Center
11:56AM 34.7958 -88.5364 101° East 468 539 38,300 -1,020 Descending Memphis Center
11:57AM 34.7725 -88.3825 100° East 463 533 37,000 -1,020 Descending Memphis Center
11:58AM 34.7492 -88.2264 100° East 463 533 36,300 -900 Descending Memphis Center
11:59AM 34.7189 -88.0553 102° East 500 575 35,200 -660 Descending Memphis Center
12:00PM 34.6925 -87.8767 100° East 505 581 35,000 -360 Descending Memphis Center
12:01PM 34.6681 -87.7083 100° East 505 581 34,500 -780 Descending Memphis Center
12:03PM 34.6256 -87.4542 101° East 488 562 33,000 -600 Descending Atlanta Center
12:04PM 34.5944 -87.2889 103° East 495 570 33,000  Level Atlanta Center
12:05PM 34.5650 -87.1414 104° East 495 570 33,000  Level Atlanta Center
12:06PM 34.5333 -86.9789 103° East 495 570 33,000  Level Atlanta Center
12:07PM 34.5019 -86.8139 103° East 495 570 33,000  Level Atlanta Center
12:08PM 34.4678 -86.6517 104° East 489 563 33,000  Level Atlanta Center
12:09PM 34.4314 -86.4917 105° East 495 570 33,000  Level Atlanta Center
12:10PM 34.3947 -86.3372 106° East 495 570 33,000  Level Atlanta Center
12:11PM 34.3581 -86.1750 105° East 495 570 33,000 -960 Level Atlanta Center
12:12PM 34.3231 -86.0183 105° East 495 570 31,100 -2,340 Descending Atlanta Center
12:13PM 34.2881 -85.8567 105° East 495 570 28,400 -3,060 Descending Atlanta Center
12:14PM 34.2444 -85.6822 107° East 490 564 25,100 -2,760 Descending Atlanta Center
12:15PM 34.2089 -85.5283 106° East 484 557 22,900 -3,000 Descending Atlanta Center
12:16PM 34.1731 -85.3794 106° East 465 535 19,100 -3,660 Descending Atlanta Center
12:17PM 34.1411 -85.2411 106° East 447 514 15,600 -2,580 Descending Atlanta Center
12:18PM 34.1069 -85.1025 107° East 430 495 14,000 -900 Descending Atlanta Center
12:19PM 34.0558 -84.9817 117° Southeast 413 475 13,900 -600 Descending Atlanta Center
12:20PM 33.9772 -84.8806 133° Southeast 412 474 12,900 -960 Descending Atlanta Center
12:21PM 33.9006 -84.7822 133° Southeast 405 466 12,000 -540 Descending Atlanta Center
12:22PM 33.8333 -84.7000 135° Southeast 399 459 12,000  Level Atlanta TRACON
12:23PM 33.7500 -84.6000 135° Southeast 362 417 12,000 -300 Level Atlanta TRACON
12:24PM 33.7333 -84.5000 101° East 317 365 11,500 -900 Descending Atlanta TRACON
12:25PM 33.7333 -84.4000 90° East 304 350 10,300 -1,260 Descending Atlanta TRACON
12:26PM 33.7333 -84.3167 90° East 286 329 9,200 -1,320 Descending Atlanta TRACON
12:27PM 33.7333 -84.2333 90° East 279 321 7,900 -1,200 Descending Atlanta TRACON
12:28PM 33.7333 -84.1333 90° East 278 320 6,900 -1,020 Descending Atlanta TRACON
12:29PM 33.7333 -84.0333 90° East 280 322 5,900 -780 Descending Atlanta TRACON
12:30PM 33.6833 -83.9667 132° Southeast 263 303 5,300 -480 Descending Atlanta TRACON
12:31PM 33.6500 -84.0333 239° Southwest 230 265 5,000 -180 Descending Atlanta TRACON
12:32PM 33.6500 -84.1000 270° West 231 266 5,000 -240 Level Atlanta TRACON
12:33PM 33.6500 -84.1833 270° West 204 235 4,600 -420 Descending Atlanta TRACON